Time;durP1;ratioP1;P1;durP2;ratioP2;P2;SDS_P1;SDS_P2;PMS_P1;PMS_P2;Temp;Humidity;BMP_temperature;BMP_pressure;BME280_temperature;BME280_humidity;BME280_pressure;Samples;Min_cycle;Max_cycle;Signal;HPM_P1;HPM_P2
2024/01/25 00:01:09;;;;;;;30.33;5.95;;;;;;;;;;4978295;28;20069;-70
2024/01/25 00:03:36;;;;;;;25.77;4.70;;;;;;;;;;4977594;28;20047;-69
2024/01/25 00:06:02;;;;;;;32.20;5.07;;;;;;;;;;4978508;28;20493;-70
2024/01/25 00:08:28;;;;;;;29.77;5.65;;;;;;;;;;4981685;28;20098;-69
2024/01/25 00:10:54;;;;;;;26.40;6.00;;;;;;;;;;4979070;28;20042;-70
2024/01/25 00:13:20;;;;;;;28.02;5.28;;;;;;;;;;4981807;28;20042;-70
2024/01/25 00:15:46;;;;;;;27.92;6.32;;;8.20;99.90;;;;;;4981220;28;20497;-70
2024/01/25 00:18:12;;;;;;;31.13;5.43;;;;;;;;;;4982006;28;20093;-70
2024/01/25 00:20:38;;;;;;;32.40;6.35;;;;;;;;;;4981131;28;20182;-70
2024/01/25 00:23:04;;;;;;;33.65;4.95;;;;;;;;;;4982364;28;20525;-70
2024/01/25 00:25:30;;;;;;;34.60;5.78;;;;;;;;;;4980676;28;20712;-70
2024/01/25 00:27:56;;;;;;;32.92;5.53;;;;;;;;;;4981426;28;20134;-70
2024/01/25 00:30:22;;;;;;;22.70;6.57;;;;;;;;;;4980774;28;20129;-70
2024/01/25 00:32:49;;;;;;;28.05;5.38;;;;;;;;;;4979073;28;20056;-69
2024/01/25 00:35:15;;;;;;;28.63;6.22;;;;;;;;;;4974111;28;20042;-69
2024/01/25 00:37:41;;;;;;;34.25;6.40;;;8.00;99.90;;;;;;4981455;28;20042;-69
2024/01/25 00:40:08;;;;;;;29.25;5.93;;;;;;;;;;4981674;28;20046;-70
2024/01/25 00:42:53;;;;;;;28.23;6.53;;;;;;;;;;4982556;28;20141;-69
2024/01/25 00:45:23;;;;;;;30.90;4.57;;;;;;;;;;4981859;28;20085;-70
2024/01/25 00:47:50;;;;;;;27.25;6.13;;;7.90;99.90;;;;;;4980033;28;20065;-70
2024/01/25 00:50:17;;;;;;;38.72;5.97;;;;;;;;;;4974232;28;20217;-69
2024/01/25 00:52:43;;;;;;;31.40;6.03;;;;;;;;;;4978815;28;20080;-70
2024/01/25 00:55:10;;;;;;;26.98;5.88;;;;;;;;;;4982278;28;20042;-70
2024/01/25 00:57:36;;;;;;;36.72;6.20;;;;;;;;;;4979213;28;20046;-70
2024/01/25 01:00:02;;;;;;;27.08;6.50;;;7.70;99.90;;;;;;4982432;28;20046;-70
2024/01/25 01:02:30;;;;;;;30.73;5.90;;;;;;;;;;4980684;28;20050;-70
2024/01/25 01:04:58;;;;;;;31.25;6.85;;;;;;;;;;4982369;28;20408;-70
2024/01/25 01:07:24;;;;;;;32.45;5.35;;;;;;;;;;4975728;28;20065;-70
2024/01/25 01:09:49;;;;;;;31.67;5.10;;;7.80;99.90;;;;;;4982112;28;20092;-70
2024/01/25 01:12:16;;;;;;;32.13;6.20;;;;;;;;;;4982639;28;20154;-70
2024/01/25 01:14:42;;;;;;;28.63;5.43;;;;;;;;;;4983556;28;20100;-70
2024/01/25 01:17:08;;;;;;;28.98;6.13;;;;;;;;;;4983664;28;20050;-70
2024/01/25 01:19:34;;;;;;;24.90;5.65;;;;;;;;;;4982352;28;20042;-70
2024/01/25 01:22:00;;;;;;;35.78;5.68;;;;;;;;;;4983970;28;20508;-70
2024/01/25 01:24:26;;;;;;;39.13;5.85;;;;;;;;;;4974167;28;20049;-70
2024/01/25 01:26:52;;;;;;;30.10;7.10;;;7.60;99.90;;;;;;4980982;28;20057;-70
2024/01/25 01:29:18;;;;;;;26.50;5.47;;;;;;;;;;4982098;28;20054;-70
2024/01/25 01:31:44;;;;;;;39.67;7.25;;;;;;;;;;4974761;28;20092;-70
2024/01/25 01:34:12;;;;;;;27.90;5.43;;;7.50;99.90;;;;;;4977248;28;20050;-70
2024/01/25 01:36:38;;;;;;;38.25;7.07;;;7.50;99.90;;;;;;4982555;28;20042;-69
2024/01/25 01:39:05;;;;;;;37.00;5.68;;;;;;;;;;4982465;28;20038;-70
2024/01/25 01:41:32;;;;;;;35.22;5.88;;;;;;;;;;4983532;28;20066;-70
2024/01/25 01:43:58;;;;;;;26.38;6.13;;;;;;;;;;4981612;28;20057;-70
2024/01/25 01:46:33;;;;;;;38.03;6.05;;;;;;;;;;4983555;28;20046;-70
2024/01/25 01:48:59;;;;;;;28.85;5.68;;;;;;;;;;4982304;28;20136;-70
2024/01/25 01:51:25;;;;;;;25.90;4.97;;;;;;;;;;4983749;28;20514;-70
2024/01/25 01:53:51;;;;;;;36.35;5.50;;;;;;;;;;4978140;28;20043;-70
2024/01/25 01:56:17;;;;;;;32.38;5.40;;;;;;;;;;4978845;28;20057;-70
2024/01/25 01:58:44;;;;;;;32.88;5.18;;;;;;;;;;4980955;28;20048;-70
2024/01/25 02:01:10;;;;;;;44.15;8.57;;;;;;;;;;4975436;28;20057;-70
2024/01/25 02:03:36;;;;;;;30.95;7.82;;;;;;;;;;4981171;28;20038;-70
2024/01/25 02:06:03;;;;;;;29.70;5.28;;;;;;;;;;4981747;28;20046;-70
2024/01/25 02:08:29;;;;;;;28.65;5.70;;;;;;;;;;4980734;28;20050;-70
2024/01/25 02:10:55;;;;;;;44.20;6.88;;;;;;;;;;4981445;28;20061;-70
2024/01/25 02:13:22;;;;;;;28.75;6.10;;;;;;;;;;4981274;28;20046;-70
2024/01/25 02:15:48;;;;;;;32.50;5.30;;;;;;;;;;4980813;28;20062;-70
2024/01/25 02:18:14;;;;;;;31.00;5.93;;;7.20;99.90;;;;;;4975501;28;20417;-70
2024/01/25 02:20:41;;;;;;;28.40;5.05;;;;;;;;;;4980893;28;20053;-70
2024/01/25 02:23:07;;;;;;;35.95;6.82;;;;;;;;;;4980520;28;20050;-70
2024/01/25 02:25:33;;;;;;;36.20;6.40;;;;;;;;;;4983130;28;20478;-70
2024/01/25 02:27:59;;;;;;;29.02;6.28;;;;;;;;;;4981999;28;20550;-70
2024/01/25 02:30:25;;;;;;;25.67;6.32;;;;;;;;;;4981030;28;20187;-70
2024/01/25 02:32:52;;;;;;;32.22;4.97;;;;;;;;;;4982183;28;20085;-70
2024/01/25 02:35:18;;;;;;;43.10;7.03;;;;;;;;;;4978628;28;20046;-70
2024/01/25 02:37:44;;;;;;;29.60;5.13;;;;;;;;;;4980115;28;20049;-70
2024/01/25 02:40:11;;;;;;;32.05;6.07;;;;;;;;;;4979774;28;20051;-70
2024/01/25 02:42:37;;;;;;;32.53;7.18;;;;;;;;;;4981597;28;20069;-70
2024/01/25 02:45:03;;;;;;;39.97;6.95;;;;;;;;;;4982801;28;20132;-70
2024/01/25 02:47:30;;;;;;;26.80;5.32;;;;;;;;;;4972445;28;20157;-70
2024/01/25 02:49:56;;;;;;;35.03;6.22;;;;;;;;;;4981328;28;20862;-70
2024/01/25 02:52:22;;;;;;;31.17;6.75;;;;;;;;;;4981786;28;20064;-70
2024/01/25 02:54:48;;;;;;;32.90;7.82;;;;;;;;;;4973713;28;20048;-70
2024/01/25 02:57:15;;;;;;;30.42;5.20;;;;;;;;;;4986081;28;20046;-70
2024/01/25 02:59:41;;;;;;;30.80;5.88;;;;;;;;;;4985182;28;20050;-70
2024/01/25 03:02:07;;;;;;;31.92;5.50;;;;;;;;;;4983858;28;20062;-70
2024/01/25 03:04:32;;;;;;;29.88;5.45;;;7.10;99.90;;;;;;4980858;28;20058;-70
2024/01/25 03:06:58;;;;;;;40.83;6.95;;;;;;;;;;4985616;28;20523;-70
2024/01/25 03:09:24;;;;;;;33.00;6.68;;;;;;;;;;4985356;28;20050;-70
2024/01/25 03:11:50;;;;;;;35.45;6.18;;;;;;;;;;4982877;28;20087;-70
2024/01/25 03:14:16;;;;;;;29.50;5.55;;;;;;;;;;4985378;28;20074;-70
2024/01/25 03:16:43;;;;;;;36.22;5.80;;;;;;;;;;4982977;28;20134;-70
2024/01/25 03:19:09;;;;;;;30.95;6.53;;;;;;;;;;4979396;28;20451;-70
2024/01/25 03:21:35;;;;;;;37.80;5.55;;;;;;;;;;4981740;28;20104;-70
2024/01/25 03:24:01;;;;;;;35.17;6.18;;;;;;;;;;4981151;28;20124;-70
2024/01/25 03:26:30;;;;;;;31.40;5.50;;;;;;;;;;4982617;28;20042;-70
2024/01/25 03:28:56;;;;;;;26.65;5.18;;;;;;;;;;4983955;28;20054;-70
2024/01/25 03:31:22;;;;;;;34.28;6.15;;;;;;;;;;4983503;28;20061;-70
2024/01/25 03:33:48;;;;;;;29.55;5.70;;;;;;;;;;4983586;28;20049;-70
2024/01/25 03:36:15;;;;;;;32.13;6.07;;;;;;;;;;4980105;28;20803;-70
2024/01/25 03:38:41;;;;;;;34.95;5.85;;;;;;;;;;4984789;28;20046;-70
2024/01/25 03:41:07;;;;;;;31.45;5.55;;;;;;;;;;4981184;28;20086;-70
2024/01/25 03:43:33;;;;;;;30.80;5.72;;;;;;;;;;4983419;28;20132;-70
2024/01/25 03:45:59;;;;;;;27.20;5.65;;;;;;;;;;4982392;28;20105;-70
2024/01/25 03:48:25;;;;;;;32.85;5.80;;;;;;;;;;4982212;28;20096;-70
2024/01/25 03:50:56;;;;;;;31.83;5.38;;;;;;;;;;4982409;28;20129;-70
2024/01/25 03:53:22;;;;;;;32.85;5.68;;;;;;;;;;4983462;28;20050;-70
2024/01/25 03:55:49;;;;;;;31.33;5.55;;;;;;;;;;4982213;28;20045;-70
2024/01/25 03:58:15;;;;;;;28.27;5.90;;;;;;;;;;4984438;28;20424;-70
2024/01/25 04:00:41;;;;;;;27.88;5.68;;;;;;;;;;4981948;28;20178;-70
2024/01/25 04:03:07;;;;;;;36.00;5.50;;;;;;;;;;4983841;28;20058;-70
2024/01/25 04:05:33;;;;;;;31.77;5.88;;;;;;;;;;4980977;28;20104;-70
2024/01/25 04:07:59;;;;;;;25.55;5.20;;;;;;;;;;4979958;28;20046;-70
2024/01/25 04:10:25;;;;;;;28.90;5.10;;;;;;;;;;5000558;28;20559;-70
2024/01/25 04:12:52;;;;;;;33.70;5.50;;;;;;;;;;4983805;28;20116;-70
2024/01/25 04:15:18;;;;;;;30.70;5.85;;;;;;;;;;4982943;28;20042;-70
2024/01/25 04:17:44;;;;;;;28.17;5.85;;;;;;;;;;4982065;28;20060;-70
2024/01/25 04:20:10;;;;;;;25.75;5.82;;;;;;;;;;4982188;28;20582;-70
2024/01/25 04:22:37;;;;;;;42.53;5.70;;;;;;;;;;4981648;28;20457;-69
2024/01/25 04:25:04;;;;;;;28.98;5.57;;;;;;;;;;4979892;28;20066;-70
2024/01/25 04:27:30;;;;;;;27.73;5.00;;;;;;;;;;4980746;28;20050;-70
2024/01/25 04:29:56;;;;;;;32.65;5.22;;;;;;;;;;4974339;28;20046;-70
2024/01/25 04:32:22;;;;;;;26.65;5.20;;;;;;;;;;4980315;28;20057;-70
2024/01/25 04:34:48;;;;;;;23.73;7.15;;;;;;;;;;4983992;28;20046;-70
2024/01/25 04:37:14;;;;;;;30.20;5.72;;;;;;;;;;4980790;28;20049;-70
2024/01/25 04:39:40;;;;;;;28.27;5.35;;;;;;;;;;4983513;28;20089;-70
2024/01/25 04:42:06;;;;;;;29.80;5.43;;;;;;;;;;4977201;28;20063;-70
2024/01/25 04:44:32;;;;;;;28.48;5.55;;;;;;;;;;4978044;28;20058;-70
2024/01/25 04:46:58;;;;;;;24.15;5.47;;;;;;;;;;4975868;28;20132;-70
2024/01/25 04:49:25;;;;;;;33.30;6.28;;;;;;;;;;4982476;28;20046;-70
2024/01/25 04:51:51;;;;;;;32.10;5.63;;;;;;;;;;4977806;28;20098;-70
2024/01/25 04:54:17;;;;;;;29.88;5.25;;;;;;;;;;4979187;28;20481;-70
2024/01/25 04:56:44;;;;;;;27.98;5.65;;;;;;;;;;4980389;28;20096;-70
2024/01/25 04:59:10;;;;;;;23.85;5.20;;;;;;;;;;4982391;28;20052;-70
2024/01/25 05:01:36;;;;;;;36.15;6.28;;;;;;;;;;4980942;28;20046;-70
2024/01/25 05:04:03;;;;;;;25.92;5.55;;;;;;;;;;4980857;28;20546;-69
2024/01/25 05:06:29;;;;;;;29.13;5.75;;;;;;;;;;4983247;28;20042;-70
2024/01/25 05:08:55;;;;;;;28.60;6.20;;;;;;;;;;4977907;28;20608;-70
2024/01/25 05:11:21;;;;;;;31.10;5.75;;;;;;;;;;4982464;28;20054;-70
2024/01/25 05:13:47;;;;;;;36.88;6.65;;;;;;;;;;4981584;28;20042;-69
2024/01/25 05:16:13;;;;;;;33.28;5.90;;;;;;;;;;4983294;28;20046;-70
2024/01/25 05:18:39;;;;;;;38.67;7.32;;;;;;;;;;4980777;28;20720;-70
2024/01/25 05:21:06;;;;;;;33.03;6.28;;;;;;;;;;4982863;28;20065;-70
2024/01/25 05:23:32;;;;;;;41.45;7.18;;;;;;;;;;4981419;28;20046;-70
2024/01/25 05:25:58;;;;;;;39.15;6.05;;;;;;;;;;4982636;28;20073;-70
2024/01/25 05:28:24;;;;;;;34.00;5.95;;;;;;;;;;4981670;28;20104;-70
2024/01/25 05:30:50;;;;;;;30.17;7.50;;;;;;;;;;4982082;28;20053;-70
2024/01/25 05:33:16;;;;;;;27.45;5.65;;;;;;;;;;4982233;28;20050;-70
2024/01/25 05:35:42;;;;;;;26.58;5.25;;;;;;;;;;4982396;28;20137;-70
2024/01/25 05:38:08;;;;;;;29.38;6.05;;;;;;;;;;4982069;28;20046;-70
2024/01/25 05:40:34;;;;;;;35.15;5.53;;;;;;;;;;4983721;28;20049;-70
2024/01/25 05:43:00;;;;;;;28.67;5.70;;;;;;;;;;4981805;28;20161;-70
2024/01/25 05:45:26;;;;;;;33.50;5.93;;;;;;;;;;4981039;28;20054;-70
2024/01/25 05:47:52;;;;;;;25.17;6.15;;;;;;;;;;4982187;28;20260;-70
2024/01/25 05:50:19;;;;;;;28.83;6.18;;;;;;;;;;4982289;28;20054;-70
2024/01/25 05:52:45;;;;;;;35.90;6.03;;;;;;;;;;4980987;28;20170;-70
2024/01/25 05:55:11;;;;;;;33.45;6.20;;;;;;;;;;4982271;28;20094;-70
2024/01/25 05:57:38;;;;;;;31.85;6.15;;;;;;;;;;4979406;28;20163;-70
2024/01/25 06:00:05;;;;;;;30.02;5.68;;;;;;;;;;4981930;28;20057;-70
2024/01/25 06:02:31;;;;;;;35.53;6.78;;;;;;;;;;4972794;28;20050;-70
2024/01/25 06:04:58;;;;;;;32.08;7.45;;;;;;;;;;4980123;28;20050;-70
2024/01/25 06:07:25;;;;;;;28.42;6.25;;;;;;;;;;4997927;28;20061;-69
2024/01/25 06:09:51;;;;;;;25.33;5.20;;;;;;;;;;4981199;28;20042;-70
2024/01/25 06:12:17;;;;;;;33.72;5.70;;;;;;;;;;4981052;28;20053;-70
2024/01/25 06:14:43;;;;;;;28.55;6.18;;;;;;;;;;4970768;28;20493;-70
2024/01/25 06:17:09;;;;;;;24.30;5.32;;;;;;;;;;4981555;28;20081;-70
2024/01/25 06:19:35;;;;;;;29.23;5.43;;;;;;;;;;4983618;28;20823;-70
2024/01/25 06:22:01;;;;;;;38.17;6.25;;;;;;;;;;4981838;28;20173;-70
2024/01/25 06:24:27;;;;;;;27.30;5.32;;;;;;;;;;4974994;28;20047;-70
2024/01/25 06:26:53;;;;;;;32.03;5.45;;;;;;;;;;4980470;28;20062;-70
2024/01/25 06:29:19;;;;;;;21.73;5.22;;;;;;;;;;4978570;28;20052;-70
2024/01/25 06:31:45;;;;;;;25.50;5.22;;;;;;;;;;4982288;28;20050;-70
2024/01/25 06:34:11;;;;;;;29.17;5.90;;;;;;;;;;4985245;28;20042;-70
2024/01/25 06:36:37;;;;;;;25.42;5.13;;;;;;;;;;4985173;28;20046;-70
2024/01/25 06:39:04;;;;;;;19.88;5.00;;;;;;;;;;4984428;28;20060;-70
2024/01/25 06:41:30;;;;;;;25.27;5.07;;;;;;;;;;4984943;28;20058;-70
2024/01/25 06:43:56;;;;;;;22.65;7.28;;;;;;;;;;4984346;28;20054;-70
2024/01/25 06:46:22;;;;;;;29.20;5.32;;;;;;;;;;4985200;28;20500;-70
2024/01/25 06:48:49;;;;;;;30.05;5.57;;;;;;;;;;4980449;28;20100;-70
2024/01/25 06:51:15;;;;;;;23.25;5.40;;;;;;;;;;4983787;28;20186;-69
2024/01/25 06:53:41;;;;;;;19.17;5.03;;;;;;;;;;4984512;28;20085;-70
2024/01/25 06:56:07;;;;;;;36.35;6.03;;;;;;;;;;4985013;28;20050;-70
2024/01/25 06:58:33;;;;;;;24.58;5.35;;;;;;;;;;4983346;28;20054;-70
2024/01/25 07:00:59;;;;;;;30.08;6.53;;;;;;;;;;4986671;28;20042;-70
2024/01/25 07:03:25;;;;;;;27.17;6.10;;;;;;;;;;4985558;28;20070;-70
2024/01/25 07:05:51;;;;;;;31.50;7.40;;;;;;;;;;4985554;28;20042;-70
2024/01/25 07:08:18;;;;;;;28.65;5.18;;;;;;;;;;4984610;28;20038;-69
2024/01/25 07:10:45;;;;;;;31.88;7.55;;;;;;;;;;4984955;28;20047;-70
2024/01/25 07:13:11;;;;;;;30.38;5.60;;;;;;;;;;4984656;28;20054;-70
2024/01/25 07:15:37;;;;;;;36.67;6.00;;;;;;;;;;4982249;28;20042;-69
2024/01/25 07:18:04;;;;;;;29.55;5.47;;;;;;;;;;4984611;28;20055;-69
2024/01/25 07:20:30;;;;;;;33.17;6.60;;;;;;;;;;4983643;28;20504;-70
2024/01/25 07:22:57;;;;;;;40.28;6.30;;;;;;;;;;4986246;28;20046;-70
2024/01/25 07:25:23;;;;;;;49.38;8.68;;;;;;;;;;4983052;28;20054;-70
2024/01/25 07:27:51;;;;;;;24.80;6.18;;;4.90;99.90;;;;;;4984421;28;20145;-69
2024/01/25 07:30:17;;;;;;;33.22;6.93;;;;;;;;;;4981619;28;20189;-70
2024/01/25 07:32:45;;;;;;;38.65;7.18;;;;;;;;;;4983530;28;20046;-70
2024/01/25 07:35:12;;;;;;;41.40;8.10;;;;;;;;;;4981899;28;20054;-68
2024/01/25 07:37:38;;;;;;;33.33;5.82;;;;;;;;;;4982898;28;20053;-68
2024/01/25 07:40:04;;;;;;;27.65;5.40;;;;;;;;;;4982460;28;20046;-69
2024/01/25 07:42:30;;;;;;;36.90;6.15;;;;;;;;;;4983548;28;20419;-70
2024/01/25 07:44:56;;;;;;;26.40;4.90;;;;;;;;;;4982170;28;20055;-70
2024/01/25 07:47:22;;;;;;;40.05;6.30;;;;;;;;;;4982157;28;20076;-70
2024/01/25 07:49:48;;;;;;;28.80;5.78;;;;;;;;;;4977651;28;20046;-70
2024/01/25 07:52:15;;;;;;;34.95;6.80;;;;;;;;;;4969538;28;20470;-69
2024/01/25 07:54:41;;;;;;;25.85;5.45;;;;;;;;;;4972448;28;20046;-70
2024/01/25 07:57:07;;;;;;;34.33;5.90;;;;;;;;;;4969709;28;20043;-70
2024/01/25 07:59:33;;;;;;;35.75;6.10;;;;;;;;;;4971140;28;20046;-70
2024/01/25 08:01:59;;;;;;;25.88;5.45;;;;;;;;;;4997474;28;20904;-69
2024/01/25 08:04:25;;;;;;;38.42;5.78;;;;;;;;;;4978494;28;20536;-69
2024/01/25 08:06:52;;;;;;;28.33;5.53;;;;;;;;;;4976770;28;20050;-70
2024/01/25 08:09:18;;;;;;;40.20;6.65;;;4.90;99.90;;;;;;4978005;28;20520;-70
2024/01/25 08:11:44;;;;;;;35.83;5.75;;;;;;;;;;4978138;28;20140;-70
2024/01/25 08:14:11;;;;;;;32.72;5.50;;;;;;;;;;4971955;28;20046;-70
2024/01/25 08:16:37;;;;;;;29.50;5.97;;;;;;;;;;4982643;28;20038;-70
2024/01/25 08:19:03;;;;;;;42.42;7.13;;;;;;;;;;4995099;28;20050;-70
2024/01/25 08:21:29;;;;;;;26.45;5.55;;;;;;;;;;4980198;28;20054;-70
2024/01/25 08:23:55;;;;;;;29.85;5.35;;;;;;;;;;4981718;28;20054;-70
2024/01/25 08:26:21;;;;;;;31.88;5.45;;;;;;;;;;4979796;28;20117;-70
2024/01/25 08:28:47;;;;;;;36.20;6.07;;;;;;;;;;4982267;28;20046;-70
2024/01/25 08:31:13;;;;;;;29.52;5.65;;;;;;;;;;4980758;28;20066;-70
2024/01/25 08:33:47;;;;;;;26.67;7.07;;;;;;;;;;4980378;28;20058;-70
2024/01/25 08:36:13;;;;;;;32.20;5.80;;;;;;;;;;4983914;28;20065;-70
2024/01/25 08:38:39;;;;;;;38.75;7.38;;;;;;;;;;4997252;28;20042;-69
2024/01/25 08:41:05;;;;;;;30.83;5.70;;;;;;;;;;4983769;28;20463;-70
2024/01/25 08:43:31;;;;;;;29.85;6.53;;;;;;;;;;4981869;28;20054;-70
2024/01/25 08:45:57;;;;;;;31.20;5.97;;;;;;;;;;4980671;28;20053;-70
2024/01/25 08:48:23;;;;;;;30.40;6.75;;;;;;;;;;4982362;28;20050;-70
2024/01/25 08:50:53;;;;;;;29.55;6.10;;;;;;;;;;4983098;28;20500;-69
2024/01/25 08:53:21;;;;;;;35.78;7.65;;;;;;;;;;4979465;28;20050;-70
2024/01/25 08:55:47;;;;;;;37.95;7.32;;;;;;;;;;4982896;28;20129;-70
2024/01/25 08:58:13;;;;;;;42.03;8.05;;;;;;;;;;4982667;28;20046;-70
2024/01/25 09:00:39;;;;;;;36.28;7.97;;;;;;;;;;4983072;28;20045;-70
2024/01/25 09:03:06;;;;;;;34.08;8.07;;;;;;;;;;4975819;28;20042;-70
2024/01/25 09:05:34;;;;;;;35.17;7.75;;;;;;;;;;4974742;28;20697;-70
2024/01/25 09:08:00;;;;;;;28.85;7.03;;;;;;;;;;4998661;28;20071;-69
2024/01/25 09:10:26;;;;;;;36.60;7.28;;;;;;;;;;4980889;28;20053;-70
2024/01/25 09:12:52;;;;;;;49.95;8.55;;;;;;;;;;4980904;28;20104;-70
2024/01/25 09:15:18;;;;;;;34.42;8.68;;;;;;;;;;4981970;28;20046;-70
2024/01/25 09:17:45;;;;;;;31.55;7.15;;;;;;;;;;4979711;28;20456;-69
2024/01/25 09:20:11;;;;;;;32.08;6.85;;;;;;;;;;4981153;28;20038;-70
2024/01/25 09:22:37;;;;;;;38.88;6.88;;;;;;;;;;4981140;28;20042;-70
2024/01/25 09:25:03;;;;;;;36.58;6.35;;;;;;;;;;4973493;28;20468;-70
2024/01/25 09:27:29;;;;;;;40.50;8.25;;;6.20;99.90;;;;;;4982720;28;20409;-70
2024/01/25 09:29:55;;;;;;;37.88;6.95;;;;;;;;;;4991697;28;20053;-70
2024/01/25 09:32:21;;;;;;;44.95;8.23;;;;;;;;;;4981154;28;20128;-70
2024/01/25 09:34:47;;;;;;;28.80;6.00;;;;;;;;;;4982888;28;20046;-70
2024/01/25 09:37:14;;;;;;;49.58;7.70;;;;;;;;;;4982659;28;20050;-70
2024/01/25 09:39:40;;;;;;;37.88;6.22;;;;;;;;;;4982867;28;20805;-70
2024/01/25 09:42:08;;;;;;;44.67;7.25;;;;;;;;;;4998236;28;20133;-70
2024/01/25 09:44:34;;;;;;;30.48;6.60;;;;;;;;;;4979526;28;20061;-70
2024/01/25 09:47:04;;;;;;;30.42;7.28;;;;;;;;;;4979305;28;20050;-70
2024/01/25 09:49:30;;;;;;;44.17;7.80;;;;;;;;;;4980798;28;20057;-70
2024/01/25 09:51:56;;;;;;;39.35;6.70;;;;;;;;;;4979769;28;20046;-70
2024/01/25 09:54:22;;;;;;;29.48;7.13;;;;;;;;;;4982313;28;20046;-70
2024/01/25 09:56:51;;;;;;;39.00;8.75;;;6.10;99.90;;;;;;4982821;28;20121;-70
2024/01/25 09:59:17;;;;;;;44.75;7.82;;;;;;;;;;4982906;28;20053;-70
2024/01/25 10:01:43;;;;;;;38.15;8.02;;;;;;;;;;4982597;28;20496;-70
2024/01/25 10:04:10;;;;;;;35.92;6.95;;;;;;;;;;4978850;28;20915;-70
2024/01/25 10:06:35;;;;;;;37.22;6.88;;;6.50;99.90;;;;;;4977978;28;20129;-70
2024/01/25 10:09:03;;;;;;;47.33;8.98;;;;;;;;;;4981895;28;20056;-70
2024/01/25 10:11:35;;;;;;;45.08;7.65;;;;;;;;;;4973697;28;20109;-70
2024/01/25 10:14:01;;;;;;;44.90;9.40;;;;;;;;;;4980736;28;20125;-70
2024/01/25 10:16:27;;;;;;;37.53;8.65;;;;;;;;;;4982690;28;20124;-70
2024/01/25 10:18:53;;;;;;;39.65;8.63;;;;;;;;;;4982711;28;20081;-70
2024/01/25 10:21:21;;;;;;;43.58;8.27;;;;;;;;;;4982452;28;20827;-70
2024/01/25 10:23:47;;;;;;;49.38;9.63;;;;;;;;;;4981415;28;20073;-70
2024/01/25 10:26:13;;;;;;;34.22;10.20;;;;;;;;;;4981721;28;20149;-70
2024/01/25 10:28:39;;;;;;;40.50;10.68;;;;;;;;;;4981253;28;20038;-70
2024/01/25 10:31:06;;;;;;;39.80;10.88;;;;;;;;;;4978241;28;20057;-70
2024/01/25 10:33:32;;;;;;;49.30;12.00;;;;;;;;;;4975658;28;20656;-70
2024/01/25 10:36:03;;;;;;;48.25;12.20;;;;;;;;;;4980384;28;20800;-70
2024/01/25 10:38:32;;;;;;;40.20;12.73;;;;;;;;;;4975680;28;20081;-70
2024/01/25 10:41:03;;;;;;;48.42;12.63;;;;;;;;;;4975978;28;20054;-70
2024/01/25 10:43:32;;;;;;;41.20;11.18;;;;;;;;;;4981510;28;20504;-70
2024/01/25 10:45:58;;;;;;;44.33;13.13;;;;;;;;;;4978481;28;20101;-70
2024/01/25 10:48:29;;;;;;;43.45;11.82;;;;;;;;;;4981746;28;20050;-70
2024/01/25 10:50:55;;;;;;;50.65;14.55;;;;;;;;;;4981447;28;20072;-70
2024/01/25 10:53:22;;;;;;;49.72;10.80;;;;;;;;;;4981465;28;20046;-70
2024/01/25 10:55:48;;;;;;;44.38;11.20;;;;;;;;;;4981169;28;20586;-70
2024/01/25 10:58:14;;;;;;;48.00;11.63;;;;;;;;;;4981480;28;20049;-70
2024/01/25 11:00:40;;;;;;;33.05;10.10;;;;;;;;;;4981158;28;20054;-70
2024/01/25 11:03:07;;;;;;;47.65;11.38;;;;;;;;;;4969469;28;20102;-70
2024/01/25 11:05:33;;;;;;;44.40;10.48;;;;;;;;;;4978721;28;20496;-70
2024/01/25 11:07:59;;;;;;;46.30;10.65;;;;;;;;;;4975608;28;20224;-70
2024/01/25 11:10:26;;;;;;;42.80;10.35;;;;;;;;;;4979394;28;20444;-70
2024/01/25 11:12:56;;;;;;;45.70;10.40;;;;;;;;;;4976668;28;20054;-71
2024/01/25 11:15:23;;;;;;;40.60;9.57;;;;;;;;;;4973124;28;20089;-71
2024/01/25 11:17:56;;;;;;;40.03;9.93;;;;;;;;;;4982527;28;20050;-71
2024/01/25 11:20:22;;;;;;;42.47;10.15;;;;;;;;;;4984554;28;20474;-71
2024/01/25 11:22:48;;;;;;;51.15;10.63;;;7.90;99.90;;;;;;4983351;28;20118;-72
2024/01/25 11:25:20;;;;;;;42.60;11.93;;;;;;;;;;4984172;28;20446;-72
2024/01/25 11:27:46;;;;;;;54.17;12.13;;;;;;;;;;4979956;28;20047;-71
2024/01/25 11:30:13;;;;;;;45.08;10.63;;;;;;;;;;4979651;28;20054;-71
2024/01/25 11:32:40;;;;;;;41.58;11.13;;;;;;;;;;4982111;28;20050;-72
2024/01/25 11:35:11;;;;;;;42.38;10.50;;;;;;;;;;4982437;28;20149;-72
2024/01/25 11:37:37;;;;;;;49.55;10.60;;;;;;;;;;4981673;28;20123;-71
2024/01/25 11:40:03;;;;;;;36.85;10.57;;;;;;;;;;4977963;28;20157;-71
2024/01/25 11:42:30;;;;;;;38.78;10.85;;;;;;;;;;4975060;28;20132;-72
2024/01/25 11:44:56;;;;;;;52.83;10.70;;;;;;;;;;4975485;28;20058;-71
2024/01/25 11:47:23;;;;;;;43.08;10.13;;;;;;;;;;4982770;28;20046;-72
2024/01/25 11:49:49;;;;;;;35.13;9.38;;;;;;;;;;4980253;28;20428;-72
2024/01/25 11:52:15;;;;;;;40.22;8.88;;;;;;;;;;4978229;28;20055;-71
2024/01/25 11:54:41;;;;;;;40.55;8.50;;;;;;;;;;4977452;28;20081;-71
2024/01/25 11:57:07;;;;;;;43.00;9.23;;;7.90;99.90;;;;;;4981346;28;20556;-71
2024/01/25 11:59:34;;;;;;;34.97;8.65;;;;;;;;;;4983684;28;20050;-71
2024/01/25 12:02:00;;;;;;;38.75;8.18;;;;;;;;;;4982176;28;20108;-72
2024/01/25 12:04:27;;;;;;;39.78;8.00;;;;;;;;;;4984958;28;20109;-72
2024/01/25 12:06:53;;;;;;;37.03;8.30;;;;;;;;;;4976220;28;20152;-71
2024/01/25 12:09:19;;;;;;;42.88;9.30;;;;;;;;;;4980624;28;20703;-71
2024/01/25 12:11:50;;;;;;;34.28;9.13;;;;;;;;;;4981388;28;20046;-71
2024/01/25 12:14:17;;;;;;;40.90;8.55;;;;;;;;;;4981538;28;20042;-72
2024/01/25 12:16:42;;;;;;;33.58;6.72;;;8.20;99.90;;;;;;4979545;28;20391;-72
2024/01/25 12:19:08;;;;;;;38.25;6.82;;;;;;;;;;4978852;28;20043;-72
2024/01/25 12:21:35;;;;;;;37.17;6.20;;;8.30;99.90;;;;;;4983482;28;20050;-72
2024/01/25 12:24:01;;;;;;;32.90;8.52;;;;;;;;;;4977478;28;20056;-72
2024/01/25 12:26:27;;;;;;;38.47;9.13;;;;;;;;;;4978468;28;20120;-72
2024/01/25 12:28:53;;;;;;;34.70;7.68;;;;;;;;;;4972851;28;20054;-72
2024/01/25 12:31:19;;;;;;;37.88;8.77;;;;;;;;;;4976690;28;20500;-72
2024/01/25 12:33:45;;;;;;;31.67;7.35;;;;;;;;;;4980652;28;20078;-72
2024/01/25 12:36:11;;;;;;;29.40;7.55;;;;;;;;;;4995833;28;20057;-73
2024/01/25 12:38:37;;;;;;;31.75;7.78;;;;;;;;;;4975372;28;20042;-72
2024/01/25 12:41:03;;;;;;;33.60;7.13;;;;;;;;;;4974447;28;20069;-72
2024/01/25 12:43:29;;;;;;;41.35;6.55;;;8.70;99.90;;;;;;4981638;28;20500;-72
2024/01/25 12:45:55;;;;;;;40.95;8.27;;;;;;;;;;4980184;28;20095;-72
2024/01/25 12:48:21;;;;;;;36.08;8.57;;;;;;;;;;4981825;28;20156;-73
2024/01/25 12:50:47;;;;;;;31.40;6.35;;;;;;;;;;4981577;28;20443;-72
2024/01/25 12:53:14;;;;;;;29.90;6.57;;;;;;;;;;4980231;28;20054;-73
2024/01/25 12:55:40;;;;;;;29.08;7.05;;;;;;;;;;4983399;28;20073;-73
2024/01/25 12:58:06;;;;;;;29.75;7.47;;;;;;;;;;4983857;28;20049;-73
2024/01/25 13:00:33;;;;;;;37.00;7.82;;;;;;;;;;4979229;28;20046;-73
2024/01/25 13:02:58;;;;;;;33.40;7.15;;;8.80;99.90;;;;;;4984270;28;20486;-73
2024/01/25 13:05:24;;;;;;;27.10;6.18;;;;;;;;;;4980610;28;20049;-73
2024/01/25 13:07:50;;;;;;;31.30;8.10;;;8.80;99.90;;;;;;4981837;28;20100;-73
2024/01/25 13:10:16;;;;;;;33.45;7.30;;;;;;;;;;4982476;28;20060;-73
2024/01/25 13:12:42;;;;;;;32.55;7.25;;;;;;;;;;4980557;28;20526;-73
2024/01/25 13:15:08;;;;;;;42.42;7.97;;;;;;;;;;4978481;28;20142;-73
2024/01/25 13:17:37;;;;;;;27.88;7.13;;;8.80;99.90;;;;;;4981499;28;20048;-73
2024/01/25 13:20:06;;;;;;;40.45;7.55;;;;;;;;;;4981280;28;20931;-73
2024/01/25 13:22:33;;;;;;;38.45;8.40;;;;;;;;;;4981979;28;20050;-73
2024/01/25 13:25:00;;;;;;;39.72;8.55;;;8.70;99.90;;;;;;4978029;28;20493;-73
2024/01/25 13:27:27;;;;;;;33.55;7.82;;;;;;;;;;4981035;28;20069;-73
2024/01/25 13:29:53;;;;;;;40.75;8.63;;;;;;;;;;4973330;28;20057;-73
2024/01/25 13:32:19;;;;;;;43.33;9.85;;;;;;;;;;4980695;28;20452;-73
2024/01/25 13:34:45;;;;;;;43.95;8.52;;;;;;;;;;4973500;28;20043;-72
2024/01/25 13:37:11;;;;;;;31.48;6.88;;;;;;;;;;4975288;28;20121;-73
2024/01/25 13:39:37;;;;;;;33.28;8.55;;;;;;;;;;4980600;28;20722;-73
2024/01/25 13:42:03;;;;;;;29.90;6.90;;;;;;;;;;4980491;28;20716;-73
2024/01/25 13:44:29;;;;;;;36.40;7.88;;;;;;;;;;4980763;28;20699;-73
2024/01/25 13:46:55;;;;;;;32.78;6.75;;;8.60;99.90;;;;;;4976420;28;20042;-73
2024/01/25 13:49:22;;;;;;;40.83;7.45;;;;;;;;;;4976387;28;20058;-73
2024/01/25 13:51:48;;;;;;;29.92;6.95;;;;;;;;;;4977881;28;20057;-73
2024/01/25 13:54:14;;;;;;;30.15;6.55;;;;;;;;;;4977600;28;20038;-73
2024/01/25 13:56:39;;;;;;;31.92;6.95;;;8.50;99.90;;;;;;4973174;28;20042;-73
2024/01/25 13:59:05;;;;;;;42.60;7.78;;;8.60;99.90;;;;;;4975458;28;20044;-73
2024/01/25 14:01:31;;;;;;;28.42;6.60;;;;;;;;;;4974243;28;20046;-73
2024/01/25 14:03:57;;;;;;;32.25;7.53;;;;;;;;;;4981851;28;20053;-73
2024/01/25 14:06:23;;;;;;;29.55;7.05;;;;;;;;;;4978935;28;20047;-73
2024/01/25 14:08:49;;;;;;;34.20;6.38;;;;;;;;;;4980904;28;20042;-72
2024/01/25 14:11:15;;;;;;;39.40;7.88;;;8.50;99.90;;;;;;4976802;28;20050;-73
2024/01/25 14:13:41;;;;;;;35.75;6.22;;;;;;;;;;4977703;28;20034;-73